Time;durP1;ratioP1;P1;durP2;ratioP2;P2;SDS_P1;SDS_P2;PMS_P1;PMS_P2;Temp;Humidity;BMP_temperature;BMP_pressure;BME280_temperature;BME280_humidity;BME280_pressure;Samples;Min_cycle;Max_cycle;Signal;HPM_P1;HPM_P2
2022/04/16 00:02:00;;;;;;;19.10;12.63;;;8.10;99.90;;;;;;4998421;28;20050;-69
2022/04/16 00:04:29;;;;;;;17.60;11.65;;;8.10;99.90;;;;;;4997620;28;20080;-69
2022/04/16 00:06:58;;;;;;;20.00;12.70;;;8.20;99.90;;;;;;4996595;28;20061;-68
2022/04/16 00:09:24;;;;;;;17.77;12.00;;;8.10;99.90;;;;;;4997760;28;20053;-68
2022/04/16 00:11:50;;;;;;;19.58;11.95;;;8.10;99.90;;;;;;4997903;28;20383;-68
2022/04/16 00:14:16;;;;;;;17.88;12.10;;;8.40;99.90;;;;;;4997440;28;20042;-68
2022/04/16 00:16:42;;;;;;;18.17;12.23;;;8.50;99.90;;;;;;4997097;28;20072;-68
2022/04/16 00:19:09;;;;;;;19.90;12.40;;;8.20;99.90;;;;;;4997363;28;20050;-68
2022/04/16 00:21:38;;;;;;;19.02;12.38;;;8.20;99.90;;;;;;4996086;28;20054;-68
2022/04/16 00:24:04;;;;;;;16.50;12.55;;;8.30;99.90;;;;;;4997241;28;20104;-68
2022/04/16 00:26:30;;;;;;;17.88;12.15;;;8.30;99.90;;;;;;4997111;28;20050;-68
2022/04/16 00:28:58;;;;;;;18.08;11.98;;;8.30;99.90;;;;;;4997790;28;20058;-68
2022/04/16 00:31:25;;;;;;;20.88;12.80;;;8.30;99.90;;;;;;4997006;28;20042;-68
2022/04/16 00:33:52;;;;;;;19.90;12.18;;;8.30;99.90;;;;;;4997616;28;20438;-68
2022/04/16 00:36:18;;;;;;;18.27;12.23;;;8.30;99.90;;;;;;4997051;28;20151;-68
2022/04/16 00:38:43;;;;;;;16.33;12.05;;;8.30;99.90;;;;;;4997075;28;20101;-68
2022/04/16 00:41:11;;;;;;;14.73;11.20;;;8.30;99.90;;;;;;4996986;28;20045;-68
2022/04/16 00:43:37;;;;;;;17.77;12.65;;;8.30;99.90;;;;;;4996631;28;20501;-68
2022/04/16 00:46:02;;;;;;;17.40;11.95;;;8.30;99.90;;;;;;4997442;28;20046;-68
2022/04/16 00:48:28;;;;;;;15.80;11.55;;;8.30;99.90;;;;;;4996847;28;20136;-68
2022/04/16 00:50:55;;;;;;;17.90;11.63;;;8.30;99.90;;;;;;4996413;28;20048;-68
2022/04/16 00:53:25;;;;;;;16.83;11.63;;;8.20;99.90;;;;;;4997271;28;20050;-68
2022/04/16 00:55:51;;;;;;;16.80;11.95;;;8.20;99.90;;;;;;4996630;28;20057;-68
2022/04/16 00:58:17;;;;;;;19.08;12.93;;;8.20;99.90;;;;;;4996831;28;20473;-68
2022/04/16 01:00:43;;;;;;;20.30;13.43;;;8.20;99.90;;;;;;4996858;28;20061;-68
2022/04/16 01:03:09;;;;;;;21.98;14.00;;;8.30;99.90;;;;;;4996575;28;20546;-68
2022/04/16 01:05:37;;;;;;;19.35;13.45;;;8.20;99.90;;;;;;4996498;28;20516;-67
2022/04/16 01:08:04;;;;;;;20.65;14.18;;;8.20;99.90;;;;;;4996477;28;20057;-69
2022/04/16 01:10:31;;;;;;;21.35;13.65;;;8.20;99.90;;;;;;4996222;28;20092;-67
2022/04/16 01:12:59;;;;;;;18.08;13.15;;;8.20;99.90;;;;;;4995430;28;20046;-67
2022/04/16 01:15:27;;;;;;;19.27;14.10;;;8.40;99.90;;;;;;4996325;28;20053;-68
2022/04/16 01:17:54;;;;;;;22.52;14.82;;;8.10;99.90;;;;;;4996268;28;20050;-68
2022/04/16 01:20:20;;;;;;;19.77;14.02;;;8.20;99.90;;;;;;4996208;28;20250;-68
2022/04/16 01:22:48;;;;;;;21.60;14.00;;;8.20;99.90;;;;;;4996176;28;20046;-68
2022/04/16 01:25:14;;;;;;;21.90;14.10;;;8.20;99.90;;;;;;4995869;28;20054;-67
2022/04/16 01:27:45;;;;;;;19.45;13.38;;;8.20;99.90;;;;;;4995997;28;20217;-67
2022/04/16 01:30:16;;;;;;;19.60;13.25;;;8.20;99.90;;;;;;4996074;28;20185;-68
2022/04/16 01:32:42;;;;;;;18.17;12.07;;;8.30;99.90;;;;;;4996354;28;20050;-68
2022/04/16 01:35:09;;;;;;;18.63;12.50;;;8.30;99.90;;;;;;4995245;28;20057;-68
2022/04/16 01:37:35;;;;;;;19.17;12.88;;;8.30;99.90;;;;;;4995864;28;20129;-68
2022/04/16 01:40:03;;;;;;;18.95;12.32;;;8.30;99.90;;;;;;4995137;28;20100;-68
2022/04/16 01:42:29;;;;;;;17.40;12.18;;;8.40;99.90;;;;;;4995831;28;20081;-68
2022/04/16 01:45:09;;;;;;;20.17;13.35;;;8.60;99.90;;;;;;4995780;28;20046;-68
2022/04/16 01:47:38;;;;;;;18.48;12.48;;;8.50;99.90;;;;;;4995688;28;20129;-68
2022/04/16 01:50:05;;;;;;;20.00;13.30;;;8.50;99.90;;;;;;4995608;28;20458;-67
2022/04/16 01:52:32;;;;;;;16.95;12.15;;;8.50;99.90;;;;;;4995592;28;20046;-68
2022/04/16 01:54:59;;;;;;;20.25;13.38;;;8.50;99.90;;;;;;4995523;28;20056;-68
2022/04/16 01:57:24;;;;;;;19.52;12.15;;;8.60;99.90;;;;;;4995555;28;20105;-68
2022/04/16 01:59:50;;;;;;;19.30;12.20;;;8.50;99.90;;;;;;4995550;28;20062;-68
2022/04/16 02:02:16;;;;;;;18.38;12.77;;;8.50;99.90;;;;;;4995404;28;20386;-68
2022/04/16 02:04:43;;;;;;;16.33;11.88;;;8.50;99.90;;;;;;4995433;28;20085;-68
2022/04/16 02:07:09;;;;;;;18.85;13.05;;;8.60;99.90;;;;;;4995269;28;20104;-68
2022/04/16 02:09:35;;;;;;;19.70;13.30;;;9.10;99.90;;;;;;4995313;28;20047;-67
2022/04/16 02:12:01;;;;;;;20.70;13.57;;;8.90;99.90;;;;;;4994660;28;20049;-68
2022/04/16 02:14:27;;;;;;;19.70;13.93;;;8.60;99.90;;;;;;4995478;28;20042;-67
2022/04/16 02:16:53;;;;;;;21.63;14.05;;;8.60;99.90;;;;;;4995183;28;20521;-67
2022/04/16 02:19:19;;;;;;;24.85;15.02;;;8.70;99.90;;;;;;4993954;28;20046;-67
2022/04/16 02:21:45;;;;;;;22.58;15.00;;;8.60;99.90;;;;;;4994890;28;20046;-67
2022/04/16 02:24:13;;;;;;;24.98;15.27;;;8.70;99.90;;;;;;4994722;28;20046;-67
2022/04/16 02:26:41;;;;;;;22.98;15.48;;;8.70;99.90;;;;;;4994930;28;20054;-67
2022/04/16 02:29:10;;;;;;;23.10;16.08;;;8.60;99.90;;;;;;4995614;28;20430;-68
2022/04/16 02:31:37;;;;;;;26.30;16.88;;;8.70;99.90;;;;;;4978277;28;20062;-67
2022/04/16 02:34:05;;;;;;;26.10;17.83;;;8.60;99.90;;;;;;4994922;28;20052;-67
2022/04/16 02:36:31;;;;;;;25.92;18.02;;;8.60;99.90;;;;;;4994785;28;20054;-67
2022/04/16 02:38:57;;;;;;;27.10;18.73;;;8.60;99.90;;;;;;4993784;28;20047;-67
2022/04/16 02:41:24;;;;;;;27.13;18.35;;;8.70;99.90;;;;;;4994576;28;20136;-68
2022/04/16 02:43:50;;;;;;;25.75;18.10;;;8.60;99.90;;;;;;4994773;28;20054;-67
2022/04/16 02:49:00;;;;;;;29.58;19.15;;;8.50;99.90;;;;;;4994696;28;20096;-68
2022/04/16 02:51:27;;;;;;;30.00;18.77;;;8.40;99.90;;;;;;4994130;28;20050;-68
2022/04/16 02:53:52;;;;;;;31.67;20.30;;;8.50;99.90;;;;;;4995048;28;20051;-68
2022/04/16 02:56:18;;;;;;;30.63;18.95;;;8.50;99.90;;;;;;4993663;28;20050;-68
2022/04/16 02:58:44;;;;;;;29.27;20.35;;;8.50;99.90;;;;;;4994493;28;20056;-67
2022/04/16 03:01:10;;;;;;;33.22;20.23;;;8.40;99.90;;;;;;4994708;28;20048;-68
2022/04/16 03:03:35;;;;;;;32.85;21.00;;;8.60;99.90;;;;;;4994168;28;20054;-67
2022/04/16 03:06:01;;;;;;;32.00;20.38;;;8.40;99.90;;;;;;4994408;28;20050;-68
2022/04/16 03:08:28;;;;;;;32.45;19.60;;;8.40;99.90;;;;;;4994353;28;20542;-67
2022/04/16 03:10:55;;;;;;;29.38;18.73;;;8.40;99.90;;;;;;4993184;28;20125;-67
2022/04/16 03:13:21;;;;;;;28.48;19.08;;;8.30;99.90;;;;;;4994290;28;20058;-67
2022/04/16 03:18:32;;;;;;;30.33;19.92;;;8.30;99.90;;;;;;4994272;28;20475;-67
2022/04/16 03:20:59;;;;;;;30.85;20.42;;;8.30;99.90;;;;;;4995046;28;20048;-67
2022/04/16 03:23:25;;;;;;;30.02;19.40;;;8.20;99.90;;;;;;4994228;28;20398;-67
2022/04/16 03:25:53;;;;;;;29.27;19.55;;;8.70;99.90;;;;;;4994152;28;20451;-67
2022/04/16 03:28:19;;;;;;;31.08;20.23;;;8.20;99.90;;;;;;4993717;28;20058;-67
2022/04/16 03:30:45;;;;;;;32.05;19.95;;;8.20;99.90;;;;;;4993994;28;20057;-67
2022/04/16 03:33:11;;;;;;;29.25;20.30;;;8.30;99.90;;;;;;4993418;28;20054;-67
2022/04/16 03:35:37;;;;;;;28.05;18.33;;;8.20;99.90;;;;;;4979304;28;20189;-67
2022/04/16 03:38:03;;;;;;;27.58;18.20;;;8.20;99.90;;;;;;4996991;28;20058;-67
2022/04/16 03:40:29;;;;;;;28.33;18.98;;;8.20;99.90;;;;;;4998041;28;20042;-68
2022/04/16 03:42:58;;;;;;;26.65;18.17;;;8.20;99.90;;;;;;4980691;28;20132;-67
2022/04/16 03:45:29;;;;;;;27.05;18.35;;;8.20;99.90;;;;;;4997973;28;20096;-67
2022/04/16 03:47:56;;;;;;;26.85;17.35;;;8.20;99.90;;;;;;4997975;28;20054;-67
2022/04/16 03:50:23;;;;;;;25.63;17.50;;;8.20;99.90;;;;;;4996642;28;20121;-67
2022/04/16 03:52:50;;;;;;;25.45;16.70;;;8.10;99.90;;;;;;4998454;28;20053;-67
2022/04/16 04:00:48;;;;;;;24.85;16.83;;;8.10;99.90;;;;;;4997747;28;20058;-67
2022/04/16 04:03:15;;;;;;;25.65;17.38;;;8.10;99.90;;;;;;4997651;28;20058;-67
2022/04/16 04:05:42;;;;;;;21.70;15.35;;;8.10;99.90;;;;;;4998176;28;20054;-68
2022/04/16 04:08:09;;;;;;;23.80;16.45;;;8.10;99.90;;;;;;4996609;28;20050;-67
2022/04/16 04:10:35;;;;;;;22.25;15.07;;;7.90;99.90;;;;;;4998236;28;20156;-67
2022/04/16 04:13:02;;;;;;;24.48;15.45;;;8.10;99.90;;;;;;4996864;28;20184;-68
2022/04/16 04:15:29;;;;;;;22.17;15.57;;;8.00;99.90;;;;;;4997276;28;20141;-67
2022/04/16 04:17:55;;;;;;;23.02;15.15;;;8.00;99.90;;;;;;4997367;28;20054;-67
2022/04/16 04:20:21;;;;;;;21.10;14.93;;;8.00;99.90;;;;;;4997293;28;20039;-67
2022/04/16 04:22:46;;;;;;;21.15;15.20;;;8.00;99.90;;;;;;4996189;28;20058;-67
2022/04/16 04:25:12;;;;;;;24.85;15.45;;;8.00;99.90;;;;;;4997227;28;20054;-67
2022/04/16 04:27:38;;;;;;;20.70;13.77;;;8.00;99.90;;;;;;4997278;28;20093;-67
2022/04/16 04:30:05;;;;;;;22.63;14.45;;;8.00;99.90;;;;;;4997101;28;20054;-68
2022/04/16 04:32:31;;;;;;;22.08;14.32;;;8.00;99.90;;;;;;4997662;28;20058;-67
2022/04/16 04:34:57;;;;;;;22.10;14.65;;;8.00;99.90;;;;;;4997698;28;20382;-67
2022/04/16 04:37:23;;;;;;;22.17;14.27;;;8.00;99.90;;;;;;4997033;28;20046;-67
2022/04/16 04:39:49;;;;;;;21.92;14.43;;;8.00;99.90;;;;;;4997069;28;20046;-67
2022/04/16 04:42:25;;;;;;;24.00;15.48;;;7.70;99.90;;;;;;4997726;28;20046;-67
2022/04/16 04:44:50;;;;;;;23.40;15.30;;;8.00;99.90;;;;;;4979692;28;20054;-67
2022/04/16 04:47:16;;;;;;;23.35;16.27;;;8.00;99.90;;;;;;4997511;28;20050;-67
2022/04/16 04:49:42;;;;;;;24.15;16.15;;;8.00;99.90;;;;;;4997563;28;20054;-68
2022/04/16 04:52:08;;;;;;;24.65;15.40;;;8.00;99.90;;;;;;4997616;28;20455;-67
2022/04/16 04:54:33;;;;;;;22.90;14.85;;;8.00;99.90;;;;;;4996686;28;20130;-67
2022/04/16 04:56:59;;;;;;;22.13;15.13;;;8.00;99.90;;;;;;4996599;28;20049;-67
2022/04/16 04:59:25;;;;;;;22.23;14.20;;;8.00;99.90;;;;;;4996883;28;20051;-67
2022/04/16 05:01:50;;;;;;;23.20;14.18;;;8.00;99.90;;;;;;4995467;28;20390;-67
2022/04/16 05:04:16;;;;;;;23.13;14.35;;;8.10;99.90;;;;;;4995295;28;20082;-67
2022/04/16 05:06:42;;;;;;;23.30;14.27;;;8.00;99.90;;;;;;4996211;28;20050;-67
2022/04/16 05:09:08;;;;;;;22.98;14.52;;;7.90;99.90;;;;;;4995564;28;20042;-67
2022/04/16 05:11:33;;;;;;;22.90;14.68;;;8.00;99.90;;;;;;4996899;28;20053;-68
2022/04/16 05:13:59;;;;;;;27.70;14.38;;;8.00;99.90;;;;;;4996922;28;20382;-67
2022/04/16 05:16:25;;;;;;;21.45;14.15;;;8.00;99.90;;;;;;4995035;28;20050;-67
2022/04/16 05:18:50;;;;;;;21.65;14.50;;;8.00;99.90;;;;;;4996312;28;20049;-67
2022/04/16 05:21:16;;;;;;;25.98;13.88;;;8.00;99.90;;;;;;4978880;28;20058;-68
2022/04/16 05:23:42;;;;;;;19.65;12.45;;;8.00;99.90;;;;;;4995540;28;20049;-68
2022/04/16 05:26:08;;;;;;;21.60;13.40;;;8.00;99.90;;;;;;4996137;28;20038;-67
2022/04/16 05:28:35;;;;;;;23.00;13.20;;;8.00;99.90;;;;;;4997066;28;20387;-68
2022/04/16 05:31:02;;;;;;;19.80;13.27;;;8.00;99.90;;;;;;4995988;28;20085;-67
2022/04/16 05:36:12;;;;;;;20.85;13.00;;;8.00;99.90;;;;;;4995814;28;20105;-68
2022/04/16 05:38:38;;;;;;;22.92;12.63;;;8.20;99.90;;;;;;4995908;28;20050;-67
2022/04/16 05:41:04;;;;;;;21.88;13.55;;;8.00;99.90;;;;;;4996666;28;20046;-67
2022/04/16 05:43:30;;;;;;;22.17;14.02;;;8.00;99.90;;;;;;4995901;28;20462;-68
2022/04/16 05:45:56;;;;;;;22.40;12.85;;;8.00;99.90;;;;;;4996221;28;20038;-68
2022/04/16 05:48:21;;;;;;;20.23;12.60;;;7.90;99.90;;;;;;4994834;28;20134;-68
2022/04/16 05:50:47;;;;;;;21.90;14.00;;;7.80;99.90;;;;;;4995637;28;20074;-68
2022/04/16 05:53:14;;;;;;;18.13;12.00;;;7.80;99.90;;;;;;4994545;28;20144;-68
2022/04/16 05:55:43;;;;;;;20.25;12.57;;;8.10;99.90;;;;;;4995582;28;20054;-67
2022/04/16 05:58:09;;;;;;;21.95;13.02;;;7.80;99.90;;;;;;4994973;28;20070;-68
2022/04/16 06:00:37;;;;;;;19.63;12.93;;;7.50;99.90;;;;;;4995226;28;20038;-68
2022/04/16 06:03:04;;;;;;;18.67;12.18;;;8.10;99.90;;;;;;4995477;28;20486;-67
2022/04/16 06:05:31;;;;;;;18.10;11.95;;;7.70;99.90;;;;;;4995688;28;20050;-68
2022/04/16 06:07:57;;;;;;;17.90;12.02;;;7.70;99.90;;;;;;4994436;28;20054;-67
2022/04/16 06:10:24;;;;;;;17.50;11.30;;;7.70;99.90;;;;;;4996062;28;20054;-68
2022/04/16 06:12:49;;;;;;;19.67;11.15;;;7.80;99.90;;;;;;4996113;28;20125;-67
2022/04/16 06:15:15;;;;;;;17.20;11.00;;;7.70;99.90;;;;;;4995532;28;20058;-68
2022/04/16 06:17:41;;;;;;;18.60;10.65;;;8.20;99.90;;;;;;4994074;28;20471;-67
2022/04/16 06:20:08;;;;;;;14.40;9.85;;;7.70;99.90;;;;;;4995977;28;20046;-67
2022/04/16 06:22:34;;;;;;;16.45;10.88;;;7.70;99.90;;;;;;4995095;28;20090;-68
2022/04/16 06:25:00;;;;;;;17.38;10.30;;;7.80;99.90;;;;;;4994414;28;20050;-68
2022/04/16 06:27:26;;;;;;;16.80;10.02;;;8.10;99.90;;;;;;4994330;28;20058;-67
2022/04/16 06:29:52;;;;;;;14.18;9.00;;;7.90;99.90;;;;;;4995514;28;20382;-67
2022/04/16 06:32:18;;;;;;;17.17;9.98;;;7.90;99.90;;;;;;4994971;28;20112;-67
2022/04/16 06:34:46;;;;;;;16.00;9.27;;;7.80;99.90;;;;;;4994942;28;20504;-68
2022/04/16 06:37:12;;;;;;;15.25;9.13;;;7.80;99.90;;;;;;4995373;28;20057;-67
2022/04/16 06:39:38;;;;;;;16.63;9.73;;;7.70;99.90;;;;;;4995326;28;20054;-68
2022/04/16 06:42:04;;;;;;;13.88;9.27;;;7.80;99.90;;;;;;4994554;28;20047;-68
2022/04/16 06:44:31;;;;;;;14.60;9.82;;;7.80;99.90;;;;;;4995050;28;20050;-67
2022/04/16 06:46:57;;;;;;;18.23;10.70;;;8.00;99.90;;;;;;4993747;28;20114;-68
2022/04/16 06:49:25;;;;;;;14.07;10.02;;;7.80;99.90;;;;;;4994649;28;20054;-68
2022/04/16 06:51:51;;;;;;;13.35;9.00;;;7.80;99.90;;;;;;4995071;28;20043;-68
2022/04/16 06:54:17;;;;;;;13.32;9.00;;;7.60;99.90;;;;;;4994704;28;20072;-67
2022/04/16 06:56:43;;;;;;;12.75;7.85;;;8.20;99.90;;;;;;4995099;28;20050;-67
2022/04/16 06:59:09;;;;;;;15.23;9.25;;;7.90;99.90;;;;;;4995317;28;20478;-67
2022/04/16 07:01:34;;;;;;;12.60;8.43;;;7.90;99.90;;;;;;4995346;28;20533;-67
2022/04/16 07:04:00;;;;;;;13.00;8.50;;;7.80;99.90;;;;;;4994839;28;20044;-67
2022/04/16 07:06:26;;;;;;;13.98;8.70;;;8.00;99.90;;;;;;4993231;28;20570;-67
2022/04/16 07:08:52;;;;;;;11.70;7.22;;;8.00;99.90;;;;;;4993544;28;20046;-68
2022/04/16 07:11:18;;;;;;;10.55;6.55;;;8.10;99.90;;;;;;4993092;28;20107;-67
2022/04/16 07:13:44;;;;;;;11.00;6.13;;;8.10;99.90;;;;;;4995140;28;20463;-67
2022/04/16 07:16:09;;;;;;;8.75;5.28;;;8.10;99.90;;;;;;4994350;28;20510;-68
2022/04/16 07:18:35;;;;;;;9.63;4.90;;;8.40;99.90;;;;;;4993078;28;20054;-67
2022/04/16 07:21:01;;;;;;;6.85;4.57;;;8.10;99.90;;;;;;4977134;28;20073;-67
2022/04/16 07:23:26;;;;;;;9.38;4.93;;;8.00;99.90;;;;;;4994238;28;20046;-67
2022/04/16 07:25:52;;;;;;;6.05;3.92;;;8.30;99.90;;;;;;4994219;28;20046;-67
2022/04/16 07:28:24;;;;;;;6.50;3.10;;;8.20;99.90;;;;;;4992899;28;20065;-68
2022/04/16 07:30:50;;;;;;;5.55;3.35;;;7.90;99.90;;;;;;4994238;28;20050;-69
2022/04/16 07:33:16;;;;;;;4.55;2.78;;;8.20;99.90;;;;;;4994234;28;20046;-69
2022/04/16 07:35:42;;;;;;;5.72;2.80;;;8.70;99.90;;;;;;4994224;28;20109;-68
2022/04/16 07:38:08;;;;;;;5.05;2.83;;;8.20;99.90;;;;;;4994100;28;20054;-68
2022/04/16 07:40:34;;;;;;;4.50;2.60;;;8.70;99.90;;;;;;4994109;28;20076;-68
2022/04/16 07:43:01;;;;;;;5.93;2.78;;;8.40;99.90;;;;;;4994175;28;20046;-67
2022/04/16 07:45:27;;;;;;;4.88;2.40;;;8.30;99.90;;;;;;4993170;28;20097;-67
2022/04/16 07:47:53;;;;;;;4.25;1.90;;;8.40;99.90;;;;;;4994156;28;20058;-68
2022/04/16 07:50:19;;;;;;;4.80;1.90;;;8.50;99.90;;;;;;4994057;28;20441;-67
2022/04/16 07:52:45;;;;;;;4.05;2.05;;;8.40;99.90;;;;;;4994363;28;20043;-68
2022/04/16 07:55:11;;;;;;;3.17;1.90;;;8.70;99.90;;;;;;4994845;28;20047;-68
2022/04/16 07:57:37;;;;;;;2.83;1.77;;;8.40;99.90;;;;;;4993922;28;20398;-68
2022/04/16 08:00:06;;;;;;;3.03;1.63;;;8.50;99.90;;;;;;4992870;28;20388;-69
2022/04/16 08:02:31;;;;;;;2.28;1.52;;;8.50;99.90;;;;;;4992600;28;20046;-70
2022/04/16 08:04:58;;;;;;;2.50;1.33;;;8.60;99.90;;;;;;4992518;28;20046;-69
2022/04/16 08:07:24;;;;;;;3.58;1.67;;;8.60;99.90;;;;;;4994652;28;20065;-69
2022/04/16 08:09:50;;;;;;;2.72;1.48;;;8.70;99.90;;;;;;4992776;28;20133;-70
2022/04/16 08:12:19;;;;;;;3.88;1.73;;;8.70;99.90;;;;;;4992782;28;20064;-70
2022/04/16 08:14:44;;;;;;;2.70;1.00;;;8.80;99.90;;;;;;4992502;28;20046;-69
2022/04/16 08:17:10;;;;;;;1.92;1.05;;;9.00;99.90;;;;;;4993615;28;20057;-69
2022/04/16 08:19:36;;;;;;;2.55;1.15;;;9.00;99.90;;;;;;4992771;28;20105;-68
2022/04/16 08:22:07;;;;;;;2.53;0.90;;;9.00;99.90;;;;;;4994945;28;20050;-68
2022/04/16 08:24:41;;;;;;;1.40;0.75;;;9.00;99.90;;;;;;4996135;28;20049;-68
2022/04/16 08:27:07;;;;;;;1.75;0.80;;;9.10;99.90;;;;;;4996199;28;20062;-67
2022/04/16 08:29:33;;;;;;;1.20;0.70;;;9.20;99.90;;;;;;4996606;28;20054;-68
2022/04/16 08:31:59;;;;;;;0.85;0.50;;;9.10;99.90;;;;;;4996412;28;20125;-67
2022/04/16 08:34:25;;;;;;;1.58;0.50;;;9.20;99.90;;;;;;4996151;28;20086;-68
2022/04/16 08:36:51;;;;;;;1.38;0.40;;;9.30;99.90;;;;;;4996308;28;20046;-68
2022/04/16 08:39:16;;;;;;;1.85;0.30;;;9.30;99.90;;;;;;4996629;28;20522;-67
2022/04/16 08:41:42;;;;;;;1.50;0.40;;;9.40;99.90;;;;;;4996016;28;20399;-68
2022/04/16 08:44:08;;;;;;;1.58;0.40;;;9.30;99.90;;;;;;4994316;28;20057;-68
2022/04/16 08:46:36;;;;;;;1.33;0.28;;;9.50;99.90;;;;;;4996483;28;20070;-68
2022/04/16 08:49:02;;;;;;;1.40;0.40;;;9.60;99.90;;;;;;4996286;28;20089;-68
2022/04/16 08:51:28;;;;;;;0.52;0.40;;;9.60;99.90;;;;;;4995903;28;20046;-68
2022/04/16 08:53:55;;;;;;;0.55;0.30;;;9.60;99.90;;;;;;4997090;28;20074;-67
2022/04/16 08:56:20;;;;;;;0.80;0.30;;;9.60;99.90;;;;;;4995006;28;20065;-68
2022/04/16 08:58:46;;;;;;;0.40;0.30;;;9.60;99.90;;;;;;4995502;28;20058;-68
2022/04/16 09:01:12;;;;;;;0.45;0.30;;;9.70;99.90;;;;;;4994755;28;20054;-67
2022/04/16 09:03:40;;;;;;;0.40;0.30;;;9.50;99.90;;;;;;4995930;28;20110;-68
2022/04/16 09:06:07;;;;;;;1.27;0.40;;;9.90;99.60;;;;;;4996346;28;20089;-67
2022/04/16 09:08:34;;;;;;;1.50;0.40;;;9.80;99.10;;;;;;4995814;28;20047;-68
2022/04/16 09:11:11;;;;;;;0.50;0.32;;;9.80;98.20;;;;;;4995456;28;20114;-68
2022/04/16 09:13:49;;;;;;;0.80;0.40;;;9.90;97.60;;;;;;4979386;28;20054;-67
2022/04/16 09:16:19;;;;;;;0.77;0.50;;;9.90;96.90;;;;;;4996264;28;20065;-67
2022/04/16 09:18:50;;;;;;;1.38;0.45;;;9.90;96.90;;;;;;4996407;28;20398;-67
2022/04/16 09:21:16;;;;;;;1.33;0.60;;;10.00;97.10;;;;;;4996380;28;20089;-68
2022/04/16 09:23:47;;;;;;;0.40;0.30;;;10.00;97.40;;;;;;4996289;28;20129;-69
2022/04/16 09:26:34;;;;;;;0.75;0.40;;;10.10;97.40;;;;;;4995892;28;20600;-67
2022/04/16 09:29:12;;;;;;;0.77;0.40;;;10.20;96.30;;;;;;4996153;28;20066;-67
2022/04/16 09:31:41;;;;;;;0.93;0.40;;;10.20;95.40;;;;;;4995932;28;20042;-67
2022/04/16 09:34:15;;;;;;;1.35;0.55;;;10.20;94.80;;;;;;4995483;28;20046;-67
2022/04/16 09:36:40;;;;;;;1.55;0.50;;;10.30;94.90;;;;;;4996694;28;20479;-67
2022/04/16 09:39:07;;;;;;;0.60;0.47;;;10.30;95.20;;;;;;4995063;28;20046;-67
2022/04/16 09:41:35;;;;;;;0.63;0.30;;;10.30;95.10;;;;;;4996289;28;20102;-68
2022/04/16 09:44:02;;;;;;;1.50;0.50;;;10.40;94.20;;;;;;4995010;28;20047;-67
2022/04/16 09:46:31;;;;;;;0.45;0.20;;;10.40;93.80;;;;;;4995890;28;20446;-66
2022/04/16 09:49:06;;;;;;;0.70;0.30;;;10.50;93.30;;;;;;4995864;28;20129;-67
2022/04/16 09:51:34;;;;;;;1.63;0.50;;;10.60;93.30;;;;;;4995768;28;20077;-67
2022/04/16 09:54:04;;;;;;;1.42;0.60;;;10.60;92.60;;;;;;4996588;28;20414;-67
2022/04/16 09:56:32;;;;;;;1.23;0.50;;;10.60;92.40;;;;;;4995631;28;20061;-66
2022/04/16 09:59:02;;;;;;;0.60;0.50;;;10.70;92.30;;;;;;4995743;28;20181;-67
2022/04/16 10:01:28;;;;;;;0.73;0.50;;;10.70;92.60;;;;;;4995705;28;20043;-67
2022/04/16 10:03:55;;;;;;;0.82;0.40;;;10.70;92.30;;;;;;4994477;28;20048;-67
2022/04/16 10:06:21;;;;;;;0.93;0.43;;;10.70;91.90;;;;;;4995309;28;20490;-67
2022/04/16 10:08:50;;;;;;;0.82;0.47;;;10.70;91.40;;;;;;4996040;28;20042;-67
2022/04/16 10:11:21;;;;;;;1.17;0.47;;;10.80;91.50;;;;;;4996431;28;20038;-67
2022/04/16 10:14:00;;;;;;;1.85;0.50;;;10.80;91.20;;;;;;4995381;28;20058;-66
2022/04/16 10:17:08;;;;;;;0.77;0.50;;;11.00;91.70;;;;;;4995428;28;20046;-66
2022/04/16 10:19:38;;;;;;;1.38;0.50;;;10.90;91.60;;;;;;4994965;28;20073;-66
2022/04/16 10:22:04;;;;;;;0.60;0.50;;;11.00;91.30;;;;;;4995514;28;20050;-66
2022/04/16 10:24:32;;;;;;;1.90;1.35;;;11.00;91.40;;;;;;4995352;28;20398;-66
2022/04/16 10:27:07;;;;;;;0.60;0.40;;;11.00;91.20;;;;;;4994948;28;20042;-66
2022/04/16 10:29:39;;;;;;;1.88;0.70;;;11.10;90.60;;;;;;4995352;28;20132;-66
2022/04/16 10:32:15;;;;;;;1.45;0.60;;;11.10;90.60;;;;;;4993752;28;20170;-66
2022/04/16 10:34:42;;;;;;;1.23;0.50;;;11.20;91.00;;;;;;4995537;28;20046;-67
2022/04/16 10:37:18;;;;;;;2.13;0.50;;;11.20;90.10;;;;;;4994840;28;20054;-67
2022/04/16 10:39:47;;;;;;;2.35;0.50;;;11.30;89.80;;;;;;4994805;28;20478;-67
2022/04/16 10:42:13;;;;;;;1.02;0.60;;;11.30;90.00;;;;;;4994855;28;20121;-68
2022/04/16 10:44:47;;;;;;;1.33;0.52;;;11.30;90.10;;;;;;4962259;28;20085;-67
2022/04/16 10:47:16;;;;;;;1.70;0.60;;;11.40;90.00;;;;;;4994663;28;20049;-67
2022/04/16 10:49:43;;;;;;;2.67;0.60;;;11.40;90.20;;;;;;4994299;28;20050;-67
2022/04/16 10:52:22;;;;;;;1.92;0.68;;;11.50;89.70;;;;;;4994728;28;20050;-67
2022/04/16 10:54:48;;;;;;;2.60;0.80;;;11.50;89.30;;;;;;4994292;28;20414;-67
2022/04/16 10:57:21;;;;;;;2.90;0.70;;;11.60;89.40;;;;;;4994482;28;20054;-67
2022/04/16 10:59:47;;;;;;;;;;;11.70;88.20;;;;;;4995510;28;20358;-68
2022/04/16 11:02:23;;;;;;;2.63;0.88;;;11.70;90.20;;;;;;4993541;28;19972;-68
2022/04/16 11:05:06;;;;;;;1.40;0.40;;;11.70;87.60;;;;;;4994514;28;20050;-68
2022/04/16 11:07:35;;;;;;;1.40;0.57;;;11.80;86.70;;;;;;4994037;28;20129;-67
2022/04/16 11:10:06;;;;;;;0.60;0.40;;;11.80;85.40;;;;;;4993386;28;20454;-68
2022/04/16 11:12:32;;;;;;;0.70;0.40;;;11.90;83.50;;;;;;4994674;28;20054;-67
2022/04/16 11:14:59;;;;;;;1.90;0.50;;;11.90;81.80;;;;;;4993378;28;20482;-68
2022/04/16 11:17:25;;;;;;;0.77;0.50;;;11.90;81.10;;;;;;4994363;28;20057;-68
2022/04/16 11:20:06;;;;;;;3.33;0.60;;;11.90;82.20;;;;;;4994674;28;20370;-68
2022/04/16 11:22:33;;;;;;;1.25;0.40;;;12.00;81.60;;;;;;4994255;28;20570;-68
2022/04/16 11:24:59;;;;;;;1.27;0.70;;;12.00;81.10;;;;;;4995033;28;20387;-68
2022/04/16 11:35:58;;;;;;;1.25;0.50;;;12.20;78.20;;;;;;4994699;28;20525;-68
2022/04/16 11:38:34;;;;;;;2.35;0.60;;;12.20;78.00;;;;;;4994057;28;20046;-68
2022/04/16 11:41:03;;;;;;;0.52;0.40;;;12.20;79.10;;;;;;4994206;28;20081;-68
2022/04/16 11:43:30;;;;;;;1.83;0.40;;;12.30;79.20;;;;;;4992973;28;20060;-68
2022/04/16 11:45:56;;;;;;;1.65;0.50;;;12.30;79.40;;;;;;4993122;28;20450;-68
2022/04/16 11:48:22;;;;;;;0.93;0.55;;;12.40;78.20;;;;;;4993094;28;20053;-68
2022/04/16 11:50:48;;;;;;;0.90;0.50;;;12.50;77.20;;;;;;4993857;28;20038;-68
2022/04/16 11:53:15;;;;;;;1.88;0.50;;;12.50;77.30;;;;;;4994060;28;20054;-70
2022/04/16 11:55:48;;;;;;;1.00;0.40;;;12.50;76.10;;;;;;4993720;28;20054;-69
2022/04/16 11:58:14;;;;;;;1.02;0.40;;;12.50;75.30;;;;;;4997814;28;20050;-68
2022/04/16 12:00:51;;;;;;;1.08;0.35;;;12.60;74.20;;;;;;4997247;28;20459;-68
2022/04/16 12:03:17;;;;;;;2.50;0.40;;;12.60;74.40;;;;;;4980620;28;20379;-68
2022/04/16 12:05:43;;;;;;;1.42;0.50;;;12.60;72.80;;;;;;4997664;28;20053;-68
2022/04/16 12:08:12;;;;;;;1.52;0.40;;;12.70;73.10;;;;;;4996577;28;20053;-68
2022/04/16 12:10:39;;;;;;;0.68;0.30;;;12.70;72.60;;;;;;4997562;28;20133;-68
2022/04/16 12:13:09;;;;;;;1.73;0.40;;;12.80;71.40;;;;;;4997521;28;20046;-68
2022/04/16 12:15:41;;;;;;;1.85;0.30;;;12.80;71.50;;;;;;4997519;28;20101;-69
2022/04/16 12:18:33;;;;;;;1.42;0.50;;;12.90;71.40;;;;;;4997205;28;20490;-69
2022/04/16 12:21:05;;;;;;;0.60;0.30;;;12.90;71.20;;;;;;4996082;28;20125;-68
2022/04/16 12:23:31;;;;;;;1.00;0.30;;;12.90;70.00;;;;;;4997407;28;20089;-68
2022/04/16 12:26:07;;;;;;;1.10;0.40;;;13.00;69.10;;;;;;4997215;28;20082;-68
2022/04/16 12:28:38;;;;;;;1.02;0.40;;;13.10;69.50;;;;;;4997081;28;20279;-68
2022/04/16 12:31:04;;;;;;;0.50;0.40;;;13.10;68.10;;;;;;4997199;28;20043;-68
2022/04/16 12:33:30;;;;;;;0.60;0.30;;;13.10;68.20;;;;;;4997980;28;20042;-68
2022/04/16 12:35:58;;;;;;;1.55;0.40;;;13.10;68.80;;;;;;4997194;28;20494;-69
2022/04/16 12:38:25;;;;;;;1.65;0.30;;;13.20;68.20;;;;;;4996945;28;20093;-68
2022/04/16 12:41:11;;;;;;;0.38;0.30;;;13.20;66.80;;;;;;4995607;28;20098;-68
2022/04/16 12:43:40;;;;;;;0.57;0.45;;;13.20;68.80;;;;;;4996162;28;20090;-69
2022/04/16 12:46:06;;;;;;;0.70;0.50;;;13.30;68.30;;;;;;4995734;28;20096;-68
2022/04/16 12:48:32;;;;;;;2.42;0.50;;;13.30;67.30;;;;;;4996926;28;20050;-70
2022/04/16 12:50:58;;;;;;;1.08;0.40;;;13.40;67.70;;;;;;4996731;28;20371;-68
2022/04/16 12:53:24;;;;;;;1.38;0.40;;;13.50;66.70;;;;;;4996880;28;20062;-67
2022/04/16 12:55:50;;;;;;;0.88;0.40;;;13.50;66.70;;;;;;4997141;28;20119;-67
2022/04/16 12:58:16;;;;;;;0.57;0.40;;;13.60;66.40;;;;;;4996068;28;20454;-68
2022/04/16 13:00:44;;;;;;;0.70;0.32;;;13.60;65.50;;;;;;4995587;28;20057;-68
2022/04/16 13:03:10;;;;;;;1.10;0.50;;;13.70;66.00;;;;;;4997306;28;20104;-69
2022/04/16 13:05:36;;;;;;;2.42;0.40;;;13.70;65.60;;;;;;4996741;28;20129;-68
2022/04/16 13:08:01;;;;;;;0.65;0.40;;;13.70;65.50;;;;;;4996618;28;20057;-69